Portada
METAR-TAF:

METAR-TAF

Aeroports :

Sialkot, Pakistan

latitud: 32-32N, longitud: 74-22E, altitud: 255 m

Observació

L'informe es va fer fa 17 minuts, a les 01:00 UTC
Vent 10 kt del Nord-Est
Temperatura 14°C
Humitat 94%
Pressió 1013 hPa
Visibilitat: 4000 m
Escasses núvols a una alçada de 3000 ft, Cumulonimbus.
Núvols disperses a una alçada de 4000 ft
Cel cobert a una alçada de 10000 ft
tempesta, pluja

METAR: OPST 200100Z 05010KT 4000 TSRA FEW030CB SCT040 OVC100 14/13 Q1013 TEMPO 05015G30KT 2000 RH94

Hora: 06:17 (01:17 UTC)


TAF: manca

Observacions i pronòstics meteorològics de més de 4000 aeroports (METAR i TAF).

Les estacions disponibles són els punts grocs i vermells al mapa.

Posi el ratolí al punt desitjat per veure el nom de l'estació.

Feu clic per veure les observacions i els pronòstics meteorològics.

Per canviar el mapa: feu clic els botons verds amb una creu de color negre per apropar; al botó verd amb un guió per allunyar la imatge; o en les fletxes verdes per a mapes adjacents.


METAR-TAF: